sensor_id;sensor_type;location;lat;lon;timestamp;pressure;altitude;pressure_sealevel;temperature;humidity
37852;BME280;23691;52.486;4.650;2023-02-22T00:01:51;101555.22;;;8.47;83.08
37852;BME280;23691;52.486;4.650;2023-02-22T00:04:35;101552.84;;;8.44;82.79
37852;BME280;23691;52.486;4.650;2023-02-22T00:07:03;101547.63;;;8.43;83.14
37852;BME280;23691;52.486;4.650;2023-02-22T00:09:28;101547.00;;;8.39;83.00
37852;BME280;23691;52.486;4.650;2023-02-22T00:11:54;101551.25;;;8.42;83.07
37852;BME280;23691;52.486;4.650;2023-02-22T00:14:19;101548.59;;;8.42;82.93
37852;BME280;23691;52.486;4.650;2023-02-22T00:16:45;101548.47;;;8.43;82.89
37852;BME280;23691;52.486;4.650;2023-02-22T00:19:10;101551.25;;;8.42;82.63
37852;BME280;23691;52.486;4.650;2023-02-22T00:21:36;101549.81;;;8.37;82.67
37852;BME280;23691;52.486;4.650;2023-02-22T00:24:02;101541.81;;;8.37;83.04
37852;BME280;23691;52.486;4.650;2023-02-22T00:26:48;101542.78;;;8.36;82.86
37852;BME280;23691;52.486;4.650;2023-02-22T00:29:13;101543.06;;;8.33;82.78
37852;BME280;23691;52.486;4.650;2023-02-22T00:31:38;101543.31;;;8.30;82.83
37852;BME280;23691;52.486;4.650;2023-02-22T00:34:04;101540.06;;;8.27;82.97
37852;BME280;23691;52.486;4.650;2023-02-22T00:36:29;101535.72;;;8.26;83.02
37852;BME280;23691;52.486;4.650;2023-02-22T00:38:55;101540.94;;;8.27;83.01
37852;BME280;23691;52.486;4.650;2023-02-22T00:41:20;101540.06;;;8.27;82.96
37852;BME280;23691;52.486;4.650;2023-02-22T00:43:45;101536.97;;;8.22;83.20
37852;BME280;23691;52.486;4.650;2023-02-22T00:46:13;101542.16;;;8.23;83.03
37852;BME280;23691;52.486;4.650;2023-02-22T00:48:38;101527.72;;;8.26;83.20
37852;BME280;23691;52.486;4.650;2023-02-22T00:51:04;101526.16;;;8.23;83.06
37852;BME280;23691;52.486;4.650;2023-02-22T00:53:29;101524.06;;;8.27;83.00
37852;BME280;23691;52.486;4.650;2023-02-22T00:55:55;101512.72;;;8.25;83.30
37852;BME280;23691;52.486;4.650;2023-02-22T00:58:21;101503.03;;;8.24;83.24
37852;BME280;23691;52.486;4.650;2023-02-22T01:00:46;101500.50;;;8.22;83.25
37852;BME280;23691;52.486;4.650;2023-02-22T01:03:14;101502.06;;;8.25;83.31
37852;BME280;23691;52.486;4.650;2023-02-22T01:05:39;101498.41;;;8.26;83.21
37852;BME280;23691;52.486;4.650;2023-02-22T01:08:07;101501.06;;;8.26;83.32
37852;BME280;23691;52.486;4.650;2023-02-22T01:10:34;101502.19;;;8.23;83.26
37852;BME280;23691;52.486;4.650;2023-02-22T01:13:01;101502.31;;;8.22;83.42
37852;BME280;23691;52.486;4.650;2023-02-22T01:15:33;101504.97;;;8.22;83.38
37852;BME280;23691;52.486;4.650;2023-02-22T01:17:58;101505.97;;;8.21;83.40
37852;BME280;23691;52.486;4.650;2023-02-22T01:20:28;101498.69;;;8.23;83.46
37852;BME280;23691;52.486;4.650;2023-02-22T01:22:58;101502.56;;;8.18;83.57
37852;BME280;23691;52.486;4.650;2023-02-22T01:25:27;101510.97;;;8.14;83.82
37852;BME280;23691;52.486;4.650;2023-02-22T01:27:53;101514.63;;;8.13;83.80
37852;BME280;23691;52.486;4.650;2023-02-22T01:30:21;101512.66;;;8.15;83.78
37852;BME280;23691;52.486;4.650;2023-02-22T01:32:48;101509.84;;;8.16;84.08
37852;BME280;23691;52.486;4.650;2023-02-22T01:35:19;101517.28;;;8.13;83.97
37852;BME280;23691;52.486;4.650;2023-02-22T01:37:44;101516.69;;;8.09;84.20
37852;BME280;23691;52.486;4.650;2023-02-22T01:40:18;101515.72;;;8.10;84.13
37852;BME280;23691;52.486;4.650;2023-02-22T01:42:47;101511.75;;;8.05;83.88
37852;BME280;23691;52.486;4.650;2023-02-22T01:48:46;101502.19;;;8.02;84.10
37852;BME280;23691;52.486;4.650;2023-02-22T01:51:26;101488.81;;;7.92;84.13
37852;BME280;23691;52.486;4.650;2023-02-22T01:53:54;101500.34;;;7.93;84.25
37852;BME280;23691;52.486;4.650;2023-02-22T01:56:22;101491.25;;;7.95;84.41
37852;BME280;23691;52.486;4.650;2023-02-22T01:58:50;101492.59;;;7.90;84.13
37852;BME280;23691;52.486;4.650;2023-02-22T02:01:17;101487.41;;;7.88;84.22
37852;BME280;23691;52.486;4.650;2023-02-22T02:03:45;101479.41;;;7.88;84.12
37852;BME280;23691;52.486;4.650;2023-02-22T02:06:14;101478.56;;;7.88;84.25
37852;BME280;23691;52.486;4.650;2023-02-22T02:08:47;101476.03;;;7.86;84.26
37852;BME280;23691;52.486;4.650;2023-02-22T02:11:22;101476.31;;;7.83;84.23
37852;BME280;23691;52.486;4.650;2023-02-22T02:13:51;101467.00;;;7.78;84.37
37852;BME280;23691;52.486;4.650;2023-02-22T02:16:20;101462.38;;;7.80;84.36
37852;BME280;23691;52.486;4.650;2023-02-22T02:18:46;101457.22;;;7.78;84.23
37852;BME280;23691;52.486;4.650;2023-02-22T02:26:54;101459.47;;;7.83;84.34
37852;BME280;23691;52.486;4.650;2023-02-22T02:32:20;101460.25;;;7.73;84.62
37852;BME280;23691;52.486;4.650;2023-02-22T02:37:46;101454.09;;;7.73;84.68
37852;BME280;23691;52.486;4.650;2023-02-22T02:40:24;101452.53;;;7.70;84.81
37852;BME280;23691;52.486;4.650;2023-02-22T02:43:06;101450.84;;;7.69;84.83
37852;BME280;23691;52.486;4.650;2023-02-22T02:45:56;101448.56;;;7.65;84.86
37852;BME280;23691;52.486;4.650;2023-02-22T02:48:26;101443.13;;;7.66;84.81
37852;BME280;23691;52.486;4.650;2023-02-22T02:50:55;101449.41;;;7.65;84.66
37852;BME280;23691;52.486;4.650;2023-02-22T02:53:26;101439.84;;;7.63;84.33
37852;BME280;23691;52.486;4.650;2023-02-22T02:55:53;101445.59;;;7.58;84.67
37852;BME280;23691;52.486;4.650;2023-02-22T02:58:22;101436.16;;;7.54;84.67
37852;BME280;23691;52.486;4.650;2023-02-22T03:00:47;101437.09;;;7.43;84.75
37852;BME280;23691;52.486;4.650;2023-02-22T03:06:19;101433.56;;;7.43;84.89
37852;BME280;23691;52.486;4.650;2023-02-22T03:09:26;101423.06;;;7.41;84.91
37852;BME280;23691;52.486;4.650;2023-02-22T03:26:00;101400.84;;;7.31;84.60
37852;BME280;23691;52.486;4.650;2023-02-22T03:28:29;101394.94;;;7.27;84.20
37852;BME280;23691;52.486;4.650;2023-02-22T03:30:59;101396.75;;;7.27;84.28
37852;BME280;23691;52.486;4.650;2023-02-22T03:33:34;101388.63;;;7.28;84.21
37852;BME280;23691;52.486;4.650;2023-02-22T03:36:11;101394.66;;;7.30;84.31
37852;BME280;23691;52.486;4.650;2023-02-22T03:38:39;101381.50;;;7.29;84.13
37852;BME280;23691;52.486;4.650;2023-02-22T03:41:08;101374.47;;;7.28;84.08
37852;BME280;23691;52.486;4.650;2023-02-22T03:43:41;101377.94;;;7.19;83.65
37852;BME280;23691;52.486;4.650;2023-02-22T03:46:11;101372.13;;;7.14;83.91
37852;BME280;23691;52.486;4.650;2023-02-22T03:48:59;101371.06;;;7.16;83.83
37852;BME280;23691;52.486;4.650;2023-02-22T03:51:24;101370.06;;;7.17;83.62
37852;BME280;23691;52.486;4.650;2023-02-22T03:53:52;101365.47;;;7.19;83.46
37852;BME280;23691;52.486;4.650;2023-02-22T03:56:34;101361.38;;;7.15;83.19
37852;BME280;23691;52.486;4.650;2023-02-22T03:59:06;101356.56;;;7.09;83.14
37852;BME280;23691;52.486;4.650;2023-02-22T04:01:33;101350.81;;;7.04;83.29
37852;BME280;23691;52.486;4.650;2023-02-22T04:03:58;101342.81;;;7.04;83.40
37852;BME280;23691;52.486;4.650;2023-02-22T04:06:24;101346.31;;;7.04;83.19
37852;BME280;23691;52.486;4.650;2023-02-22T04:08:50;101352.47;;;7.05;83.03
37852;BME280;23691;52.486;4.650;2023-02-22T04:11:15;101342.66;;;7.05;82.87
37852;BME280;23691;52.486;4.650;2023-02-22T04:13:41;101340.84;;;7.06;82.73
37852;BME280;23691;52.486;4.650;2023-02-22T04:16:06;101326.97;;;7.02;82.67
37852;BME280;23691;52.486;4.650;2023-02-22T04:18:31;101337.72;;;7.01;82.88
37852;BME280;23691;52.486;4.650;2023-02-22T04:20:57;101330.03;;;6.98;82.94
37852;BME280;23691;52.486;4.650;2023-02-22T04:23:22;101337.28;;;6.96;83.05
37852;BME280;23691;52.486;4.650;2023-02-22T04:25:47;101340.22;;;6.93;83.11
37852;BME280;23691;52.486;4.650;2023-02-22T04:28:17;101328.00;;;6.90;82.97
37852;BME280;23691;52.486;4.650;2023-02-22T04:30:43;101326.19;;;6.91;82.80
37852;BME280;23691;52.486;4.650;2023-02-22T04:33:09;101336.09;;;6.88;83.05
37852;BME280;23691;52.486;4.650;2023-02-22T04:35:35;101331.63;;;6.89;83.06
37852;BME280;23691;52.486;4.650;2023-02-22T04:38:00;101335.25;;;6.88;83.04
37852;BME280;23691;52.486;4.650;2023-02-22T04:40:26;101330.06;;;6.86;83.11
37852;BME280;23691;52.486;4.650;2023-02-22T04:42:52;101326.72;;;6.84;82.95
37852;BME280;23691;52.486;4.650;2023-02-22T04:45:17;101319.97;;;6.80;83.00
37852;BME280;23691;52.486;4.650;2023-02-22T04:47:42;101310.53;;;6.76;83.05
37852;BME280;23691;52.486;4.650;2023-02-22T04:50:08;101312.47;;;6.74;83.18
37852;BME280;23691;52.486;4.650;2023-02-22T04:52:35;101307.31;;;6.73;83.19
37852;BME280;23691;52.486;4.650;2023-02-22T04:55:01;101300.16;;;6.73;83.09
37852;BME280;23691;52.486;4.650;2023-02-22T04:57:26;101299.44;;;6.71;83.16
37852;BME280;23691;52.486;4.650;2023-02-22T04:59:52;101300.53;;;6.69;83.67
37852;BME280;23691;52.486;4.650;2023-02-22T05:02:17;101297.75;;;6.70;83.45
37852;BME280;23691;52.486;4.650;2023-02-22T05:04:43;101285.19;;;6.72;83.44
37852;BME280;23691;52.486;4.650;2023-02-22T05:07:09;101291.59;;;6.70;83.30
37852;BME280;23691;52.486;4.650;2023-02-22T05:09:35;101298.88;;;6.68;83.46
37852;BME280;23691;52.486;4.650;2023-02-22T05:12:00;101288.34;;;6.66;83.42
37852;BME280;23691;52.486;4.650;2023-02-22T05:14:25;101277.44;;;6.69;83.43
37852;BME280;23691;52.486;4.650;2023-02-22T05:16:56;101281.09;;;6.68;83.65
37852;BME280;23691;52.486;4.650;2023-02-22T05:19:22;101275.16;;;6.64;83.39
37852;BME280;23691;52.486;4.650;2023-02-22T05:21:47;101269.84;;;6.64;83.52
37852;BME280;23691;52.486;4.650;2023-02-22T05:24:13;101276.88;;;6.65;83.43
37852;BME280;23691;52.486;4.650;2023-02-22T05:26:38;101272.50;;;6.64;83.32
37852;BME280;23691;52.486;4.650;2023-02-22T05:29:05;101265.63;;;6.62;83.25
37852;BME280;23691;52.486;4.650;2023-02-22T05:31:30;101263.97;;;6.61;83.61
37852;BME280;23691;52.486;4.650;2023-02-22T05:33:56;101264.06;;;6.59;83.43
37852;BME280;23691;52.486;4.650;2023-02-22T05:36:22;101259.75;;;6.58;83.51
37852;BME280;23691;52.486;4.650;2023-02-22T05:38:48;101255.41;;;6.57;83.80
37852;BME280;23691;52.486;4.650;2023-02-22T05:41:14;101255.66;;;6.54;83.90
37852;BME280;23691;52.486;4.650;2023-02-22T05:43:40;101250.09;;;6.57;83.62
37852;BME280;23691;52.486;4.650;2023-02-22T05:46:06;101248.53;;;6.55;83.60
37852;BME280;23691;52.486;4.650;2023-02-22T05:48:31;101246.56;;;6.57;83.77
37852;BME280;23691;52.486;4.650;2023-02-22T05:50:57;101249.94;;;6.59;83.64
37852;BME280;23691;52.486;4.650;2023-02-22T05:53:22;101249.94;;;6.59;83.70
37852;BME280;23691;52.486;4.650;2023-02-22T05:55:49;101248.13;;;6.59;83.64
37852;BME280;23691;52.486;4.650;2023-02-22T05:58:14;101242.22;;;6.56;83.40
37852;BME280;23691;52.486;4.650;2023-02-22T06:00:40;101248.28;;;6.58;83.77
37852;BME280;23691;52.486;4.650;2023-02-22T06:03:07;101254.31;;;6.60;83.83
37852;BME280;23691;52.486;4.650;2023-02-22T06:05:35;101249.84;;;6.60;83.86
37852;BME280;23691;52.486;4.650;2023-02-22T06:08:05;101249.69;;;6.62;83.83
37852;BME280;23691;52.486;4.650;2023-02-22T06:10:30;101254.16;;;6.61;83.89
37852;BME280;23691;52.486;4.650;2023-02-22T06:12:56;101244.63;;;6.59;83.89
37852;BME280;23691;52.486;4.650;2023-02-22T06:15:23;101245.34;;;6.61;83.95
37852;BME280;23691;52.486;4.650;2023-02-22T06:17:50;101242.97;;;6.58;84.01
37852;BME280;23691;52.486;4.650;2023-02-22T06:20:18;101243.06;;;6.56;84.03
37852;BME280;23691;52.486;4.650;2023-02-22T06:22:48;101251.66;;;6.60;84.02
37852;BME280;23691;52.486;4.650;2023-02-22T06:25:16;101251.78;;;6.58;84.19
37852;BME280;23691;52.486;4.650;2023-02-22T06:27:42;101249.00;;;6.60;84.17
37852;BME280;23691;52.486;4.650;2023-02-22T06:30:09;101242.69;;;6.61;84.16
37852;BME280;23691;52.486;4.650;2023-02-22T06:32:36;101244.50;;;6.60;84.25
37852;BME280;23691;52.486;4.650;2023-02-22T06:35:01;101245.34;;;6.61;84.10
37852;BME280;23691;52.486;4.650;2023-02-22T06:37:26;101246.56;;;6.57;84.47
37852;BME280;23691;52.486;4.650;2023-02-22T06:39:52;101248.53;;;6.55;84.42
37852;BME280;23691;52.486;4.650;2023-02-22T06:42:17;101249.38;;;6.55;84.54
37852;BME280;23691;52.486;4.650;2023-02-22T06:44:42;101250.22;;;6.56;84.53
37852;BME280;23691;52.486;4.650;2023-02-22T06:47:08;101251.19;;;6.55;84.55
37852;BME280;23691;52.486;4.650;2023-02-22T06:49:34;101247.56;;;6.56;84.65
37852;BME280;23691;52.486;4.650;2023-02-22T06:51:59;101250.94;;;6.58;84.73
37852;BME280;23691;52.486;4.650;2023-02-22T06:54:24;101250.66;;;6.61;84.67
37852;BME280;23691;52.486;4.650;2023-02-22T06:56:51;101250.22;;;6.56;84.75
37852;BME280;23691;52.486;4.650;2023-02-22T06:59:16;101244.06;;;6.55;84.96
37852;BME280;23691;52.486;4.650;2023-02-22T07:01:42;101242.13;;;6.57;85.04
37852;BME280;23691;52.486;4.650;2023-02-22T07:04:08;101237.50;;;6.59;85.28
37852;BME280;23691;52.486;4.650;2023-02-22T07:06:33;101230.50;;;6.58;85.07
37852;BME280;23691;52.486;4.650;2023-02-22T07:08:59;101230.38;;;6.60;85.18
37852;BME280;23691;52.486;4.650;2023-02-22T07:11:25;101216.50;;;6.56;85.32
37852;BME280;23691;52.486;4.650;2023-02-22T07:13:51;101222.53;;;6.58;85.46
37852;BME280;23691;52.486;4.650;2023-02-22T07:16:16;101215.53;;;6.57;85.45
37852;BME280;23691;52.486;4.650;2023-02-22T07:18:41;101213.81;;;6.56;85.61
37852;BME280;23691;52.486;4.650;2023-02-22T07:21:07;101217.09;;;6.60;85.59
37852;BME280;23691;52.486;4.650;2023-02-22T07:23:32;101234.72;;;6.61;85.57
37852;BME280;23691;52.486;4.650;2023-02-22T07:26:02;101226.47;;;6.64;85.58
37852;BME280;23691;52.486;4.650;2023-02-22T07:28:29;101227.06;;;6.68;85.45
37852;BME280;23691;52.486;4.650;2023-02-22T07:30:54;101219.81;;;6.70;85.47
37852;BME280;23691;52.486;4.650;2023-02-22T07:33:20;101224.88;;;6.73;85.49
37852;BME280;23691;52.486;4.650;2023-02-22T07:35:47;101237.06;;;6.75;85.43
37852;BME280;23691;52.486;4.650;2023-02-22T07:38:14;101240.66;;;6.74;85.45
37852;BME280;23691;52.486;4.650;2023-02-22T07:40:43;101242.38;;;6.75;85.65
37852;BME280;23691;52.486;4.650;2023-02-22T07:43:25;101239.19;;;6.81;85.56
37852;BME280;23691;52.486;4.650;2023-02-22T07:45:54;101238.06;;;6.84;85.54
37852;BME280;23691;52.486;4.650;2023-02-22T07:48:21;101225.66;;;6.84;85.55
37852;BME280;23691;52.486;4.650;2023-02-22T07:50:47;101221.88;;;6.87;85.80
37852;BME280;23691;52.486;4.650;2023-02-22T07:53:21;101220.63;;;6.91;85.78
37852;BME280;23691;52.486;4.650;2023-02-22T07:55:47;101216.72;;;6.95;85.66
37852;BME280;23691;52.486;4.650;2023-02-22T07:58:16;101227.09;;;6.98;85.78
37852;BME280;23691;52.486;4.650;2023-02-22T08:00:42;101226.00;;;7.01;85.81
37852;BME280;23691;52.486;4.650;2023-02-22T08:03:11;101227.44;;;7.05;85.86
37852;BME280;23691;52.486;4.650;2023-02-22T08:05:38;101228.72;;;7.10;85.93
37852;BME280;23691;52.486;4.650;2023-02-22T08:08:04;101230.41;;;7.12;85.89
37852;BME280;23691;52.486;4.650;2023-02-22T08:10:30;101235.47;;;7.15;86.13
37852;BME280;23691;52.486;4.650;2023-02-22T08:12:56;101221.88;;;7.18;85.95
37852;BME280;23691;52.486;4.650;2023-02-22T08:15:28;101231.41;;;7.20;86.00
37852;BME280;23691;52.486;4.650;2023-02-22T08:17:54;101232.84;;;7.24;85.89
37852;BME280;23691;52.486;4.650;2023-02-22T08:20:20;101241.41;;;7.28;85.76
37852;BME280;23691;52.486;4.650;2023-02-22T08:22:46;101235.13;;;7.29;85.89
37852;BME280;23691;52.486;4.650;2023-02-22T08:25:13;101226.97;;;7.30;85.97
37852;BME280;23691;52.486;4.650;2023-02-22T08:27:40;101225.88;;;7.33;85.92
37852;BME280;23691;52.486;4.650;2023-02-22T08:30:06;101225.75;;;7.35;86.05
37852;BME280;23691;52.486;4.650;2023-02-22T08:32:32;101223.63;;;7.38;86.03
37852;BME280;23691;52.486;4.650;2023-02-22T08:34:57;101223.38;;;7.41;85.81
37852;BME280;23691;52.486;4.650;2023-02-22T08:37:22;101221.28;;;7.45;85.67
37852;BME280;23691;52.486;4.650;2023-02-22T08:39:48;101214.84;;;7.47;85.78
37852;BME280;23691;52.486;4.650;2023-02-22T08:42:13;101215.44;;;7.51;85.63
37852;BME280;23691;52.486;4.650;2023-02-22T08:44:39;101224.09;;;7.53;85.63
37852;BME280;23691;52.486;4.650;2023-02-22T08:47:05;101230.16;;;7.55;85.68
37852;BME280;23691;52.486;4.650;2023-02-22T08:49:31;101228.75;;;7.51;85.62
37852;BME280;23691;52.486;4.650;2023-02-22T08:51:57;101221.88;;;7.48;85.54
37852;BME280;23691;52.486;4.650;2023-02-22T08:54:23;101221.59;;;7.51;85.85
37852;BME280;23691;52.486;4.650;2023-02-22T08:56:48;101210.13;;;7.51;85.69
37852;BME280;23691;52.486;4.650;2023-02-22T08:59:14;101218.50;;;7.46;85.80
37852;BME280;23691;52.486;4.650;2023-02-22T09:01:40;101219.91;;;7.50;85.95
37852;BME280;23691;52.486;4.650;2023-02-22T09:04:06;101217.22;;;7.50;85.79
37852;BME280;23691;52.486;4.650;2023-02-22T09:06:31;101212.22;;;7.57;85.68
37852;BME280;23691;52.486;4.650;2023-02-22T09:08:57;101201.44;;;7.59;85.56
37852;BME280;23691;52.486;4.650;2023-02-22T09:11:22;101199.63;;;7.59;85.46
37852;BME280;23691;52.486;4.650;2023-02-22T09:13:48;101187.00;;;7.61;85.48
37852;BME280;23691;52.486;4.650;2023-02-22T09:16:14;101191.34;;;7.62;85.50
37852;BME280;23691;52.486;4.650;2023-02-22T09:18:39;101195.44;;;7.66;85.33
37852;BME280;23691;52.486;4.650;2023-02-22T09:21:05;101198.94;;;7.67;85.25
37852;BME280;23691;52.486;4.650;2023-02-22T09:23:30;101207.63;;;7.69;84.88
37852;BME280;23691;52.486;4.650;2023-02-22T09:25:56;101198.81;;;7.68;85.08
37852;BME280;23691;52.486;4.650;2023-02-22T09:28:24;101197.81;;;7.69;85.12
37852;BME280;23691;52.486;4.650;2023-02-22T09:30:50;101187.88;;;7.71;85.10
37852;BME280;23691;52.486;4.650;2023-02-22T09:33:17;101178.75;;;7.74;84.90
37852;BME280;23691;52.486;4.650;2023-02-22T09:35:44;101173.84;;;7.79;84.78
37852;BME280;23691;52.486;4.650;2023-02-22T09:38:18;101171.50;;;7.86;84.76
37852;BME280;23691;52.486;4.650;2023-02-22T09:41:07;101172.31;;;7.86;84.83
37852;BME280;23691;52.486;4.650;2023-02-22T09:43:43;101166.44;;;7.92;84.83
37852;BME280;23691;52.486;4.650;2023-02-22T09:46:17;101163.34;;;7.97;84.83
37852;BME280;23691;52.486;4.650;2023-02-22T09:49:15;101155.22;;;8.08;84.88
37852;BME280;23691;52.486;4.650;2023-02-22T09:52:20;101144.69;;;8.26;84.39
37852;BME280;23691;52.486;4.650;2023-02-22T09:54:56;101134.00;;;8.36;84.18
37852;BME280;23691;52.486;4.650;2023-02-22T09:57:41;101132.75;;;8.50;84.06
37852;BME280;23691;52.486;4.650;2023-02-22T10:00:19;101130.63;;;8.53;84.19
37852;BME280;23691;52.486;4.650;2023-02-22T10:05:50;101148.03;;;8.67;83.79
37852;BME280;23691;52.486;4.650;2023-02-22T10:08:17;101151.94;;;8.73;83.61
37852;BME280;23691;52.486;4.650;2023-02-22T10:10:45;101158.50;;;8.78;83.38
37852;BME280;23691;52.486;4.650;2023-02-22T10:13:24;101163.81;;;8.88;83.46
37852;BME280;23691;52.486;4.650;2023-02-22T10:16:32;101180.34;;;9.01;83.22
37852;BME280;23691;52.486;4.650;2023-02-22T10:19:23;101172.00;;;9.14;82.55
37852;BME280;23691;52.486;4.650;2023-02-22T10:22:01;101176.59;;;9.22;82.24
37852;BME280;23691;52.486;4.650;2023-02-22T10:24:56;101176.31;;;9.25;82.23
37852;BME280;23691;52.486;4.650;2023-02-22T10:27:33;101178.69;;;9.28;82.14
37852;BME280;23691;52.486;4.650;2023-02-22T10:30:15;101180.06;;;9.32;81.76
37852;BME280;23691;52.486;4.650;2023-02-22T10:32:46;101180.06;;;9.32;81.58
37852;BME280;23691;52.486;4.650;2023-02-22T10:35:19;101173.19;;;9.30;81.31
37852;BME280;23691;52.486;4.650;2023-02-22T10:37:45;101160.00;;;9.28;81.24
37852;BME280;23691;52.486;4.650;2023-02-22T10:40:18;101166.59;;;9.34;81.25
37852;BME280;23691;52.486;4.650;2023-02-22T10:42:48;101162.47;;;9.39;81.07
37852;BME280;23691;52.486;4.650;2023-02-22T10:45:28;101166.09;;;9.48;80.85
37852;BME280;23691;52.486;4.650;2023-02-22T10:47:58;101168.06;;;9.46;80.91
37852;BME280;23691;52.486;4.650;2023-02-22T10:50:29;101168.19;;;9.44;80.79
37852;BME280;23691;52.486;4.650;2023-02-22T10:52:56;101158.97;;;9.39;80.72
37852;BME280;23691;52.486;4.650;2023-02-22T10:55:21;101154.75;;;9.36;80.53
37852;BME280;23691;52.486;4.650;2023-02-22T10:57:49;101155.75;;;9.35;80.43
37852;BME280;23691;52.486;4.650;2023-02-22T11:00:17;101166.44;;;9.35;80.72
37852;BME280;23691;52.486;4.650;2023-02-22T11:02:56;101177.13;;;9.35;80.22
37852;BME280;23691;52.486;4.650;2023-02-22T11:05:30;101172.22;;;9.31;80.25
37852;BME280;23691;52.486;4.650;2023-02-22T11:10:39;101172.53;;;9.18;80.33
37852;BME280;23691;52.486;4.650;2023-02-22T11:15:50;101180.72;;;9.16;80.57
37852;BME280;23691;52.486;4.650;2023-02-22T11:18:33;101168.91;;;9.19;80.66
37852;BME280;23691;52.486;4.650;2023-02-22T11:21:05;101161.44;;;9.22;80.55
37852;BME280;23691;52.486;4.650;2023-02-22T11:23:32;101163.66;;;9.27;80.41
37852;BME280;23691;52.486;4.650;2023-02-22T11:26:09;101167.56;;;9.33;81.01
37852;BME280;23691;52.486;4.650;2023-02-22T11:28:35;101164.44;;;9.37;80.75
37852;BME280;23691;52.486;4.650;2023-02-22T11:33:35;101161.13;;;9.53;80.65
37852;BME280;23691;52.486;4.650;2023-02-22T11:36:05;101156.56;;;9.63;80.67
37852;BME280;23691;52.486;4.650;2023-02-22T11:38:37;101150.47;;;9.71;80.40
37852;BME280;23691;52.486;4.650;2023-02-22T11:43:39;101148.66;;;9.89;79.99
37852;BME280;23691;52.486;4.650;2023-02-22T11:46:16;101132.81;;;9.96;79.89
37852;BME280;23691;52.486;4.650;2023-02-22T11:49:07;101124.03;;;10.04;79.71
37852;BME280;23691;52.486;4.650;2023-02-22T11:55:02;101113.47;;;10.20;79.33
37852;BME280;23691;52.486;4.650;2023-02-22T11:57:24;101103.78;;;10.19;79.48
37852;BME280;23691;52.486;4.650;2023-02-22T12:02:44;101083.06;;;10.21;79.24
37852;BME280;23691;52.486;4.650;2023-02-22T12:06:06;101083.47;;;10.26;79.12
37852;BME280;23691;52.486;4.650;2023-02-22T12:08:38;101084.38;;;10.35;78.75
37852;BME280;23691;52.486;4.650;2023-02-22T12:11:18;101079.25;;;10.42;78.66
37852;BME280;23691;52.486;4.650;2023-02-22T12:21:23;101092.53;;;10.60;77.54
37852;BME280;23691;52.486;4.650;2023-02-22T12:24:00;101087.72;;;10.63;77.46
37852;BME280;23691;52.486;4.650;2023-02-22T12:26:36;101086.41;;;10.67;77.63
37852;BME280;23691;52.486;4.650;2023-02-22T12:32:14;101093.69;;;10.83;77.08
37852;BME280;23691;52.486;4.650;2023-02-22T12:34:54;101078.13;;;10.87;76.57
37852;BME280;23691;52.486;4.650;2023-02-22T12:43:12;101072.03;;;11.11;76.19
37852;BME280;23691;52.486;4.650;2023-02-22T12:48:15;101073.22;;;11.16;75.98
37852;BME280;23691;52.486;4.650;2023-02-22T12:50:48;101083.25;;;11.14;75.89
37852;BME280;23691;52.486;4.650;2023-02-22T12:53:20;101081.59;;;11.13;75.85
37852;BME280;23691;52.486;4.650;2023-02-22T12:55:51;101088.31;;;11.17;75.82
37852;BME280;23691;52.486;4.650;2023-02-22T13:00:59;101098.16;;;11.17;75.25
37852;BME280;23691;52.486;4.650;2023-02-22T13:03:35;101096.34;;;11.17;75.31
37852;BME280;23691;52.486;4.650;2023-02-22T13:22:13;101084.91;;;11.07;74.87
37852;BME280;23691;52.486;4.650;2023-02-22T13:25:01;101090.25;;;11.07;75.07
37852;BME280;23691;52.486;4.650;2023-02-22T13:27:59;101088.59;;;11.06;75.01
37852;BME280;23691;52.486;4.650;2023-02-22T13:30:38;101085.75;;;11.08;75.28
37852;BME280;23691;52.486;4.650;2023-02-22T13:41:28;101089.47;;;11.23;74.87
37852;BME280;23691;52.486;4.650;2023-02-22T13:49:42;101084.47;;;11.28;74.23
37852;BME280;23691;52.486;4.650;2023-02-22T13:52:14;101080.28;;;11.34;74.04
37852;BME280;23691;52.486;4.650;2023-02-22T13:54:43;101087.50;;;11.33;73.92
37852;BME280;23691;52.486;4.650;2023-02-22T13:57:21;101080.63;;;11.31;73.55
37852;BME280;23691;52.486;4.650;2023-02-22T13:59:47;101080.28;;;11.26;73.43
37852;BME280;23691;52.486;4.650;2023-02-22T14:02:54;101089.16;;;11.26;73.42
37852;BME280;23691;52.486;4.650;2023-02-22T14:08:02;101084.13;;;11.23;73.00
37852;BME280;23691;52.486;4.650;2023-02-22T14:10:50;101080.13;;;11.27;72.89
37852;BME280;23691;52.486;4.650;2023-02-22T14:13:18;101077.06;;;11.22;72.78
37852;BME280;23691;52.486;4.650;2023-02-22T14:18:23;101080.63;;;11.31;72.90
37852;BME280;23691;52.486;4.650;2023-02-22T14:21:27;101092.53;;;11.36;72.59
37852;BME280;23691;52.486;4.650;2023-02-22T14:23:54;101091.53;;;11.37;72.85
37852;BME280;23691;52.486;4.650;2023-02-22T14:26:25;101088.88;;;11.46;72.72
37852;BME280;23691;52.486;4.650;2023-02-22T14:28:54;101092.22;;;11.48;72.71
37852;BME280;23691;52.486;4.650;2023-02-22T14:31:28;101091.69;;;11.44;72.64
37852;BME280;23691;52.486;4.650;2023-02-22T14:34:01;101094.38;;;11.44;72.71
37852;BME280;23691;52.486;4.650;2023-02-22T14:41:50;101102.25;;;11.37;72.95
37852;BME280;23691;52.486;4.650;2023-02-22T14:44:25;101092.22;;;11.39;73.08
37852;BME280;23691;52.486;4.650;2023-02-22T14:46:55;101095.06;;;11.38;73.20
37852;BME280;23691;52.486;4.650;2023-02-22T14:49:23;101104.06;;;11.37;73.03
37852;BME280;23691;52.486;4.650;2023-02-22T14:52:01;101096.03;;;11.37;73.19
37852;BME280;23691;52.486;4.650;2023-02-22T14:57:41;101097.06;;;11.36;72.92
37852;BME280;23691;52.486;4.650;2023-02-22T15:00:19;101096.56;;;11.41;72.92
37852;BME280;23691;52.486;4.650;2023-02-22T15:02:49;101098.91;;;11.44;72.90
37852;BME280;23691;52.486;4.650;2023-02-22T15:05:17;101095.41;;;11.43;72.82
37852;BME280;23691;52.486;4.650;2023-02-22T15:07:54;101099.25;;;11.41;72.95
37852;BME280;23691;52.486;4.650;2023-02-22T15:12:55;101119.44;;;11.18;73.04